createdAt,value
2022-11-26T00:01:00.892Z,6.00
2022-11-26T00:03:29.554Z,6.00
2022-11-26T00:06:01.488Z,6.00
2022-11-26T00:08:32.446Z,6.00
2022-11-26T00:11:06.252Z,6.00
2022-11-26T00:13:34.615Z,6.00
2022-11-26T00:16:03.265Z,5.90
2022-11-26T00:18:31.777Z,5.90
2022-11-26T00:21:02.684Z,5.80
2022-11-26T00:23:31.380Z,5.80
2022-11-26T00:26:04.432Z,5.80
2022-11-26T00:28:34.918Z,5.80
2022-11-26T00:31:05.848Z,5.80
2022-11-26T00:33:34.779Z,5.80
2022-11-26T00:36:09.898Z,5.80
2022-11-26T00:38:38.603Z,5.70
2022-11-26T00:41:15.577Z,5.70
2022-11-26T00:43:45.661Z,5.60
2022-11-26T00:46:15.526Z,5.60
2022-11-26T00:48:44.218Z,5.60
2022-11-26T00:51:16.366Z,5.60
2022-11-26T00:53:45.826Z,5.60
2022-11-26T00:56:19.653Z,5.60
2022-11-26T00:58:51.896Z,5.60
2022-11-26T01:01:25.782Z,5.60
2022-11-26T01:03:54.451Z,5.60
2022-11-26T01:06:25.260Z,5.50
2022-11-26T01:08:54.050Z,5.60
2022-11-26T01:11:27.374Z,5.50
2022-11-26T01:13:56.991Z,5.50
2022-11-26T01:16:27.753Z,5.50
2022-11-26T01:18:58.903Z,5.50
2022-11-26T01:21:29.643Z,5.50
2022-11-26T01:23:58.783Z,5.50
2022-11-26T01:26:34.128Z,5.50
2022-11-26T01:29:02.669Z,5.40
2022-11-26T01:31:31.953Z,5.40
2022-11-26T01:34:00.706Z,5.40
2022-11-26T01:36:31.807Z,5.30
2022-11-26T01:39:03.509Z,5.30
2022-11-26T01:41:45.160Z,5.30
2022-11-26T01:44:19.330Z,5.30
2022-11-26T01:46:48.470Z,5.30
2022-11-26T01:49:19.004Z,5.40
2022-11-26T01:51:50.054Z,5.40
2022-11-26T01:54:19.091Z,5.50
2022-11-26T02:00:08.651Z,5.60
2022-11-26T02:02:54.554Z,5.70
2022-11-26T02:05:43.997Z,5.80
2022-11-26T02:08:17.920Z,5.90
2022-11-26T02:11:16.105Z,5.90
2022-11-26T02:14:21.117Z,6.00
2022-11-26T02:17:15.621Z,6.00
2022-11-26T02:20:26.769Z,6.10
2022-11-26T02:26:59.831Z,6.20
2022-11-26T02:30:09.638Z,6.20
2022-11-26T02:32:54.495Z,6.20
2022-11-26T02:35:29.690Z,6.10
2022-11-26T02:38:02.796Z,6.10
2022-11-26T02:40:31.407Z,6.10
2022-11-26T02:43:00.084Z,6.00
2022-11-26T02:45:33.885Z,6.00
2022-11-26T02:48:05.063Z,5.90
2022-11-26T02:50:37.809Z,5.90
2022-11-26T02:53:08.447Z,5.80
2022-11-26T02:55:46.595Z,5.80
2022-11-26T02:58:18.425Z,5.80
2022-11-26T03:00:50.626Z,5.70
2022-11-26T03:03:26.458Z,5.60
2022-11-26T03:05:57.900Z,5.60
2022-11-26T03:08:28.064Z,5.60
2022-11-26T03:10:56.679Z,5.50
2022-11-26T03:13:25.352Z,5.50
2022-11-26T03:15:55.270Z,5.50
2022-11-26T03:18:23.742Z,5.40
2022-11-26T03:20:52.605Z,5.30
2022-11-26T03:23:20.862Z,5.30
2022-11-26T03:25:48.961Z,5.30
2022-11-26T03:28:42.559Z,5.30
2022-11-26T03:31:29.304Z,5.30
2022-11-26T03:34:17.472Z,5.30
2022-11-26T03:37:07.075Z,5.30
2022-11-26T03:39:38.757Z,5.20
2022-11-26T03:42:56.743Z,5.20
2022-11-26T03:45:43.125Z,5.10
2022-11-26T03:48:31.222Z,5.10
2022-11-26T03:51:13.969Z,5.10
2022-11-26T03:54:41.939Z,4.90
2022-11-26T03:57:24.944Z,4.80
2022-11-26T03:59:53.899Z,4.80
2022-11-26T04:02:22.569Z,4.80
2022-11-26T04:04:52.664Z,4.70
2022-11-26T04:07:21.320Z,4.70
2022-11-26T04:09:49.890Z,4.70
2022-11-26T04:12:18.432Z,4.70
2022-11-26T04:14:48.960Z,4.70
2022-11-26T04:17:17.630Z,4.70
2022-11-26T04:19:46.099Z,4.60
2022-11-26T04:22:16.532Z,4.60
2022-11-26T04:24:46.076Z,4.60
2022-11-26T04:27:14.657Z,4.50
2022-11-26T04:29:45.392Z,4.50
2022-11-26T04:32:14.397Z,4.50
2022-11-26T04:34:45.731Z,4.50
2022-11-26T04:37:18.660Z,4.50
2022-11-26T04:39:47.035Z,4.50
2022-11-26T04:42:15.584Z,4.50
2022-11-26T04:44:46.899Z,4.50
2022-11-26T04:47:15.857Z,4.50
2022-11-26T04:49:44.119Z,4.40
2022-11-26T04:52:12.416Z,4.40
2022-11-26T04:54:43.736Z,4.30
2022-11-26T04:57:12.150Z,4.30
2022-11-26T04:59:42.116Z,4.30
2022-11-26T05:02:10.923Z,4.30
2022-11-26T05:04:39.536Z,4.30
2022-11-26T05:07:08.027Z,4.30
2022-11-26T05:09:36.376Z,4.30
2022-11-26T05:12:06.396Z,4.30
2022-11-26T05:14:34.714Z,4.20
2022-11-26T05:17:03.065Z,4.20
2022-11-26T05:19:35.544Z,4.30
2022-11-26T05:22:07.220Z,4.20
2022-11-26T05:24:36.015Z,4.20
2022-11-26T05:27:06.571Z,4.20
2022-11-26T05:29:38.058Z,4.20
2022-11-26T05:32:07.096Z,4.20
2022-11-26T05:34:35.786Z,4.20
2022-11-26T05:37:04.327Z,4.30
2022-11-26T05:39:40.258Z,4.30
2022-11-26T05:42:22.772Z,4.30
2022-11-26T05:44:56.778Z,4.40
2022-11-26T05:47:25.039Z,4.40
2022-11-26T05:50:02.800Z,4.40
2022-11-26T05:52:31.447Z,4.40
2022-11-26T05:55:06.339Z,4.50
2022-11-26T05:57:45.589Z,4.50
2022-11-26T06:00:15.567Z,4.50
2022-11-26T06:02:44.137Z,4.50
2022-11-26T06:05:12.775Z,4.50
2022-11-26T06:07:44.608Z,4.50
2022-11-26T06:10:16.137Z,4.50
2022-11-26T06:12:46.116Z,4.40
2022-11-26T06:15:14.750Z,4.40
2022-11-26T06:17:45.582Z,4.30
2022-11-26T06:20:14.695Z,4.30
2022-11-26T06:22:58.738Z,4.30
2022-11-26T06:25:28.960Z,4.30
2022-11-26T06:27:58.669Z,4.20
2022-11-26T06:30:27.592Z,4.20
2022-11-26T06:33:02.034Z,4.20
2022-11-26T06:35:30.304Z,4.20
2022-11-26T06:37:58.688Z,4.20
2022-11-26T06:40:42.741Z,4.20
2022-11-26T06:43:12.718Z,4.20
2022-11-26T06:45:51.372Z,4.20
2022-11-26T06:48:26.396Z,4.30
2022-11-26T06:51:01.895Z,4.30
2022-11-26T06:53:36.947Z,4.30
2022-11-26T06:56:07.217Z,4.30
2022-11-26T06:58:53.712Z,4.30
2022-11-26T07:01:25.981Z,4.30
2022-11-26T07:03:56.494Z,4.20
2022-11-26T07:06:26.599Z,4.20
2022-11-26T07:08:59.300Z,4.20
2022-11-26T07:11:31.067Z,4.20
2022-11-26T07:14:01.621Z,4.10
2022-11-26T07:16:30.846Z,4.20
2022-11-26T07:19:05.996Z,4.10
2022-11-26T07:21:34.235Z,4.10
2022-11-26T07:24:02.308Z,4.10
2022-11-26T07:26:31.799Z,4.10
2022-11-26T07:29:04.620Z,4.10
2022-11-26T07:31:32.851Z,4.10
2022-11-26T07:34:11.467Z,4.10
2022-11-26T07:36:58.034Z,4.10
2022-11-26T07:39:39.451Z,4.00
2022-11-26T07:42:08.034Z,4.10
2022-11-26T07:45:02.966Z,4.10
2022-11-26T07:47:48.653Z,4.10
2022-11-26T07:50:40.071Z,4.10
2022-11-26T07:53:23.078Z,4.20
2022-11-26T07:56:07.633Z,4.10
2022-11-26T07:58:36.454Z,4.20
2022-11-26T08:01:09.891Z,4.20
2022-11-26T08:03:42.601Z,4.20
2022-11-26T08:06:13.097Z,4.30
2022-11-26T08:08:41.568Z,4.30
2022-11-26T08:11:14.922Z,4.40
2022-11-26T08:13:43.134Z,4.50
2022-11-26T08:16:13.266Z,4.50
2022-11-26T08:18:41.605Z,4.50
2022-11-26T08:21:09.566Z,4.70
2022-11-26T08:23:38.160Z,4.70
2022-11-26T08:26:30.603Z,4.70
2022-11-26T08:28:55.977Z,4.80
2022-11-26T08:31:27.668Z,4.90
2022-11-26T08:33:58.673Z,5.00
2022-11-26T08:36:26.941Z,5.00
2022-11-26T08:38:54.927Z,5.20
2022-11-26T08:41:22.919Z,5.30
2022-11-26T08:44:06.108Z,5.50
2022-11-26T08:46:37.311Z,5.60
2022-11-26T08:49:06.365Z,5.70
2022-11-26T08:51:34.498Z,5.80
2022-11-26T08:54:04.695Z,5.90
2022-11-26T08:56:32.869Z,5.90
2022-11-26T08:59:01.345Z,6.00
2022-11-26T09:01:35.271Z,6.20
2022-11-26T09:04:09.030Z,6.20
2022-11-26T09:06:38.232Z,6.30
2022-11-26T09:09:17.588Z,6.30
2022-11-26T09:11:50.953Z,6.20
2022-11-26T09:14:22.992Z,6.30
2022-11-26T09:16:52.919Z,6.50
2022-11-26T09:19:23.612Z,6.60
2022-11-26T09:21:52.477Z,6.50
2022-11-26T09:24:21.513Z,6.50
2022-11-26T09:26:52.128Z,6.50
2022-11-26T09:29:24.284Z,6.60
2022-11-26T09:32:22.544Z,6.80
2022-11-26T09:34:54.058Z,6.90
2022-11-26T09:37:25.067Z,7.10
2022-11-26T09:39:57.772Z,7.10
2022-11-26T09:42:41.991Z,7.20
2022-11-26T09:45:43.185Z,7.30
2022-11-26T09:48:23.057Z,7.40
2022-11-26T09:51:14.894Z,7.40
2022-11-26T09:53:56.723Z,7.40
2022-11-26T09:56:35.415Z,7.40
2022-11-26T09:59:09.843Z,7.40
2022-11-26T10:01:49.421Z,7.40
2022-11-26T10:04:25.156Z,7.40
2022-11-26T10:07:10.599Z,7.50
2022-11-26T10:09:55.449Z,7.50
2022-11-26T10:12:50.329Z,7.60
2022-11-26T10:15:41.161Z,7.70
2022-11-26T10:18:25.189Z,7.70
2022-11-26T10:21:10.818Z,7.90
2022-11-26T10:23:47.817Z,8.00
2022-11-26T10:26:18.453Z,8.10
2022-11-26T10:28:53.989Z,8.30
2022-11-26T10:31:26.796Z,8.50
2022-11-26T10:34:06.351Z,8.70
2022-11-26T10:36:47.087Z,8.90
2022-11-26T10:39:23.490Z,9.10
2022-11-26T10:41:52.295Z,9.50
2022-11-26T10:44:36.758Z,9.90
2022-11-26T10:47:30.424Z,10.10
2022-11-26T10:50:50.548Z,10.20
2022-11-26T10:53:26.914Z,10.20
2022-11-26T10:56:05.069Z,10.00
2022-11-26T10:58:45.366Z,9.90
2022-11-26T11:01:19.839Z,9.90
2022-11-26T11:04:09.737Z,10.00
2022-11-26T11:06:50.160Z,10.00
2022-11-26T11:09:33.365Z,9.90
2022-11-26T11:12:30.505Z,9.90
2022-11-26T11:15:32.405Z,9.80
2022-11-26T11:18:17.311Z,9.90
2022-11-26T11:21:07.706Z,9.90
2022-11-26T11:24:06.989Z,10.00
2022-11-26T11:26:51.310Z,10.10
2022-11-26T11:29:33.803Z,10.10
2022-11-26T11:32:10.424Z,10.20
2022-11-26T11:34:55.939Z,10.20
2022-11-26T11:37:30.142Z,10.30
2022-11-26T11:40:17.191Z,10.30
2022-11-26T11:43:09.966Z,10.40
2022-11-26T11:45:52.790Z,10.50
2022-11-26T11:48:34.022Z,10.70
2022-11-26T11:51:24.040Z,10.70
2022-11-26T11:54:12.600Z,10.70
2022-11-26T11:56:53.110Z,10.70
2022-11-26T12:00:01.114Z,10.80
2022-11-26T12:02:44.437Z,10.90
2022-11-26T12:05:55.335Z,11.00
2022-11-26T12:08:42.121Z,10.90
2022-11-26T12:11:40.102Z,11.00
2022-11-26T12:14:15.945Z,10.90
2022-11-26T12:16:59.913Z,10.80
2022-11-26T12:19:41.932Z,10.80
2022-11-26T12:22:21.797Z,10.80
2022-11-26T12:25:06.222Z,10.80
2022-11-26T12:27:44.730Z,10.70
2022-11-26T12:30:17.660Z,10.50
2022-11-26T12:32:53.360Z,10.50
2022-11-26T12:35:31.836Z,10.40
2022-11-26T12:38:03.847Z,10.20
2022-11-26T12:40:38.849Z,10.10
2022-11-26T12:43:14.374Z,9.90
2022-11-26T12:45:53.759Z,9.80
2022-11-26T12:48:42.334Z,9.60
2022-11-26T12:51:30.078Z,9.50
2022-11-26T12:54:16.608Z,9.50
2022-11-26T12:56:57.684Z,9.50
2022-11-26T12:59:33.959Z,9.30
2022-11-26T13:02:18.925Z,9.30
2022-11-26T13:04:51.502Z,9.30
2022-11-26T13:07:31.300Z,9.30
2022-11-26T13:10:08.598Z,9.30
2022-11-26T13:12:46.906Z,9.20
2022-11-26T13:15:26.650Z,9.30
2022-11-26T13:17:58.424Z,9.40
2022-11-26T13:20:59.336Z,9.40
2022-11-26T13:23:46.970Z,9.40
2022-11-26T13:26:36.580Z,9.50
2022-11-26T13:29:24.916Z,9.40
2022-11-26T13:32:12.687Z,9.40
2022-11-26T13:35:10.346Z,9.40
2022-11-26T13:37:52.009Z,9.30
2022-11-26T13:40:59.014Z,9.40
2022-11-26T13:44:10.439Z,9.40
2022-11-26T13:46:42.553Z,9.40
2022-11-26T13:49:15.310Z,9.30
2022-11-26T13:51:50.155Z,9.40
2022-11-26T13:54:22.690Z,9.30
2022-11-26T13:56:58.453Z,9.40
2022-11-26T13:59:28.764Z,9.30
2022-11-26T14:01:59.713Z,9.30
2022-11-26T14:04:53.710Z,9.30
2022-11-26T14:07:25.702Z,9.30
2022-11-26T14:09:56.330Z,9.20
2022-11-26T14:13:06.084Z,9.20
2022-11-26T14:16:00.465Z,9.20
2022-11-26T14:19:03.080Z,9.20
2022-11-26T14:21:31.851Z,9.20
2022-11-26T14:24:02.985Z,9.10
2022-11-26T14:26:37.690Z,9.00
2022-11-26T14:29:13.489Z,9.00
2022-11-26T14:31:47.439Z,8.90
2022-11-26T14:34:23.052Z,8.90
2022-11-26T14:36:57.521Z,8.90
2022-11-26T14:39:26.315Z,8.90
2022-11-26T14:42:00.341Z,8.90
2022-11-26T14:44:37.257Z,8.90
2022-11-26T14:47:15.012Z,8.80
2022-11-26T14:49:54.356Z,8.80
2022-11-26T14:52:32.861Z,8.80
2022-11-26T14:55:05.989Z,8.80
2022-11-26T14:57:44.491Z,8.70
2022-11-26T15:00:32.646Z,8.70
2022-11-26T15:03:08.192Z,8.70
2022-11-26T15:05:45.061Z,8.70
2022-11-26T15:08:21.271Z,8.70
2022-11-26T15:10:55.581Z,8.70
2022-11-26T15:13:30.168Z,8.70
2022-11-26T15:16:03.174Z,8.70
2022-11-26T15:18:38.913Z,8.70
2022-11-26T15:21:20.467Z,8.70
2022-11-26T15:23:54.750Z,8.70
2022-11-26T15:26:24.166Z,8.80
2022-11-26T15:28:52.718Z,8.80
2022-11-26T15:31:22.825Z,8.80
2022-11-26T15:34:01.260Z,8.80
2022-11-26T15:36:30.674Z,8.80
2022-11-26T15:39:29.442Z,8.70
2022-11-26T15:42:03.533Z,8.70
2022-11-26T15:44:42.636Z,8.80
2022-11-26T15:47:23.738Z,8.80
2022-11-26T15:49:55.490Z,8.80
2022-11-26T15:52:28.918Z,8.80
2022-11-26T15:55:13.664Z,8.80
2022-11-26T15:57:46.618Z,8.80
2022-11-26T16:00:23.232Z,8.80
2022-11-26T16:03:31.343Z,8.80
2022-11-26T16:06:16.075Z,8.80
2022-11-26T16:09:01.277Z,8.70
2022-11-26T16:11:37.312Z,8.70
2022-11-26T16:14:29.242Z,8.70
2022-11-26T16:16:58.521Z,8.70
2022-11-26T16:19:37.851Z,8.70
2022-11-26T16:22:09.309Z,8.70
2022-11-26T16:24:42.686Z,8.70
2022-11-26T16:27:29.011Z,8.70
2022-11-26T16:30:00.609Z,8.70
2022-11-26T16:32:34.360Z,8.70
2022-11-26T16:35:17.446Z,8.70
2022-11-26T16:37:54.320Z,8.70
2022-11-26T16:43:21.017Z,8.70
2022-11-26T16:45:59.020Z,8.60
2022-11-26T16:48:29.278Z,8.60
2022-11-26T16:50:59.525Z,8.60
2022-11-26T16:53:29.592Z,8.60
2022-11-26T16:56:04.008Z,8.60
2022-11-26T16:58:38.735Z,8.60
2022-11-26T17:01:08.272Z,8.60
2022-11-26T17:03:36.976Z,8.60
2022-11-26T17:06:30.198Z,8.60
2022-11-26T17:09:15.785Z,8.60
2022-11-26T17:11:57.340Z,8.60
2022-11-26T17:14:44.951Z,8.60
2022-11-26T17:17:36.778Z,8.50
2022-11-26T17:20:08.967Z,8.60
2022-11-26T17:22:40.864Z,8.50
2022-11-26T17:25:18.259Z,8.40
2022-11-26T17:27:47.948Z,8.40
2022-11-26T17:30:18.671Z,8.40
2022-11-26T17:32:46.832Z,8.30
2022-11-26T17:35:15.237Z,8.30
2022-11-26T17:37:50.694Z,8.30
2022-11-26T17:40:22.130Z,8.40
2022-11-26T17:42:51.191Z,8.40
2022-11-26T17:45:19.853Z,8.40
2022-11-26T17:47:48.212Z,8.30
2022-11-26T17:50:20.108Z,8.30
2022-11-26T17:52:48.883Z,8.30
2022-11-26T17:55:19.449Z,8.20
2022-11-26T17:57:47.480Z,8.20
2022-11-26T18:00:21.499Z,8.20
2022-11-26T18:02:52.492Z,8.20
2022-11-26T18:05:21.019Z,8.10
2022-11-26T18:07:49.843Z,8.10
2022-11-26T18:10:22.071Z,8.00
2022-11-26T18:12:53.743Z,8.00
2022-11-26T18:15:26.747Z,7.90
2022-11-26T18:17:56.519Z,7.90
2022-11-26T18:20:26.518Z,7.90
2022-11-26T18:22:56.470Z,7.90
2022-11-26T18:25:29.412Z,7.90
2022-11-26T18:27:57.520Z,7.90
2022-11-26T18:30:30.597Z,7.90
2022-11-26T18:32:58.702Z,7.90
2022-11-26T18:35:26.627Z,8.00
2022-11-26T18:37:54.631Z,8.00
2022-11-26T18:40:27.561Z,8.00
2022-11-26T18:42:55.563Z,7.90
2022-11-26T18:45:23.535Z,8.00
2022-11-26T18:47:51.577Z,8.00
2022-11-26T18:50:19.732Z,8.00
2022-11-26T18:52:50.552Z,7.90
2022-11-26T18:55:19.197Z,7.90
2022-11-26T18:57:48.589Z,7.90
2022-11-26T19:00:17.224Z,7.80
2022-11-26T19:02:45.318Z,7.70
2022-11-26T19:05:13.411Z,7.60
2022-11-26T19:07:42.774Z,7.50
2022-11-26T19:10:13.612Z,7.40
2022-11-26T19:12:41.646Z,7.40
2022-11-26T19:15:11.599Z,7.30
2022-11-26T19:17:42.170Z,7.20
2022-11-26T19:20:10.441Z,7.10
2022-11-26T19:22:38.569Z,7.10
2022-11-26T19:25:07.132Z,7.00
2022-11-26T19:27:35.473Z,7.00
2022-11-26T19:30:03.546Z,6.80
2022-11-26T19:32:32.951Z,6.80
2022-11-26T19:35:05.645Z,6.70
2022-11-26T19:37:35.784Z,6.70
2022-11-26T19:40:04.395Z,6.60
2022-11-26T19:42:32.757Z,6.50
2022-11-26T19:45:00.683Z,6.40
2022-11-26T19:47:28.842Z,6.40
2022-11-26T19:49:58.308Z,6.30
2022-11-26T19:52:26.336Z,6.30
2022-11-26T19:54:54.305Z,6.20
2022-11-26T19:57:22.327Z,6.20
2022-11-26T19:59:52.661Z,6.10
2022-11-26T20:02:23.353Z,6.10
2022-11-26T20:04:51.411Z,6.10
2022-11-26T20:07:20.878Z,6.10
2022-11-26T20:09:54.776Z,6.20
2022-11-26T20:12:22.731Z,6.20
2022-11-26T20:14:52.851Z,6.30
2022-11-26T20:17:20.853Z,6.30
2022-11-26T20:19:50.255Z,6.30
2022-11-26T20:22:21.048Z,6.40
2022-11-26T20:24:50.389Z,6.40
2022-11-26T20:27:19.559Z,6.50
2022-11-26T20:29:47.517Z,6.50
2022-11-26T20:32:15.421Z,6.50
2022-11-26T20:34:45.812Z,6.60
2022-11-26T20:37:13.719Z,6.60
2022-11-26T20:39:42.120Z,6.60
2022-11-26T20:42:11.896Z,6.60
2022-11-26T20:44:40.260Z,6.60
2022-11-26T20:47:08.267Z,6.70
2022-11-26T20:49:42.699Z,6.70
2022-11-26T20:52:11.264Z,6.70
2022-11-26T20:54:39.477Z,6.70
2022-11-26T20:57:07.458Z,6.70
2022-11-26T20:59:37.752Z,6.70
2022-11-26T21:02:08.253Z,6.80
2022-11-26T21:04:36.274Z,6.80
2022-11-26T21:07:04.502Z,6.90
2022-11-26T21:09:32.566Z,6.90
2022-11-26T21:12:00.777Z,6.90
2022-11-26T21:14:29.484Z,6.90
2022-11-26T21:16:58.960Z,6.90
2022-11-26T21:19:27.137Z,6.90
2022-11-26T21:21:55.173Z,7.00
2022-11-26T21:24:23.463Z,6.90
2022-11-26T21:26:51.427Z,6.90
2022-11-26T21:29:19.549Z,6.90
2022-11-26T21:31:49.139Z,6.80
2022-11-26T21:34:18.540Z,6.80
2022-11-26T21:36:46.749Z,6.80
2022-11-26T21:39:17.403Z,6.70
2022-11-26T21:41:45.488Z,6.70
2022-11-26T21:44:13.562Z,6.60
2022-11-26T21:46:41.649Z,6.50
2022-11-26T21:49:09.816Z,6.50
2022-11-26T21:51:39.185Z,6.50
2022-11-26T21:54:07.170Z,6.50
2022-11-26T21:56:38.120Z,6.50
2022-11-26T21:59:06.088Z,6.50
2022-11-26T22:01:36.141Z,6.50
2022-11-26T22:04:08.111Z,6.40
2022-11-26T22:06:37.823Z,6.30
2022-11-26T22:09:06.550Z,6.10
2022-11-26T22:11:36.544Z,6.10
2022-11-26T22:14:08.050Z,6.00
2022-11-26T22:16:36.511Z,6.00
2022-11-26T22:19:04.727Z,5.90
2022-11-26T22:21:35.647Z,5.80
2022-11-26T22:24:06.580Z,5.80
2022-11-26T22:26:34.953Z,5.70
2022-11-26T22:29:03.046Z,5.60
2022-11-26T22:31:32.917Z,5.60
2022-11-26T22:34:03.053Z,5.60
2022-11-26T22:36:31.859Z,5.60
2022-11-26T22:39:00.650Z,5.60
2022-11-26T22:41:29.983Z,5.50
2022-11-26T22:44:00.064Z,5.50
2022-11-26T22:46:28.297Z,5.50
2022-11-26T22:49:02.937Z,5.50
2022-11-26T22:51:34.121Z,5.40
2022-11-26T22:54:06.503Z,5.40
2022-11-26T22:56:38.008Z,5.40
2022-11-26T22:59:07.655Z,5.30
2022-11-26T23:01:44.164Z,5.20
2022-11-26T23:04:17.756Z,5.20
2022-11-26T23:06:52.235Z,5.20
2022-11-26T23:09:29.933Z,5.10
2022-11-26T23:12:03.550Z,5.10
2022-11-26T23:14:44.781Z,5.00
2022-11-26T23:17:22.125Z,4.90
2022-11-26T23:19:56.327Z,4.80
2022-11-26T23:22:51.193Z,4.80
2022-11-26T23:25:44.541Z,4.80
2022-11-26T23:31:21.752Z,4.70
2022-11-26T23:33:57.758Z,4.70
2022-11-26T23:36:35.491Z,4.60
2022-11-26T23:39:11.810Z,4.50
2022-11-26T23:41:39.872Z,4.50
2022-11-26T23:44:36.623Z,4.50
2022-11-26T23:47:13.530Z,4.40
2022-11-26T23:49:49.902Z,4.40
2022-11-26T23:52:21.548Z,4.40
2022-11-26T23:54:54.812Z,4.30
2022-11-26T23:57:31.356Z,4.30
